sensor_id;sensor_type;location;lat;lon;timestamp;P1;durP1;ratioP1;P2;durP2;ratioP2
26060;SDS011;36331;51.378;0.018;2022-07-15T00:00:28;5.97;;;2.90;;
26060;SDS011;36331;51.378;0.018;2022-07-15T00:03:02;6.03;;;2.72;;
26060;SDS011;36331;51.378;0.018;2022-07-15T00:05:32;5.75;;;3.00;;
26060;SDS011;36331;51.378;0.018;2022-07-15T00:08:05;7.50;;;3.08;;
26060;SDS011;36331;51.378;0.018;2022-07-15T00:10:34;5.35;;;2.63;;
26060;SDS011;36331;51.378;0.018;2022-07-15T00:13:06;5.25;;;2.38;;
26060;SDS011;36331;51.378;0.018;2022-07-15T00:15:36;8.27;;;2.78;;
26060;SDS011;36331;51.378;0.018;2022-07-15T00:18:08;6.40;;;3.28;;
26060;SDS011;36331;51.378;0.018;2022-07-15T00:20:42;6.20;;;3.60;;
26060;SDS011;36331;51.378;0.018;2022-07-15T00:23:13;8.05;;;4.18;;
26060;SDS011;36331;51.378;0.018;2022-07-15T00:25:42;5.88;;;3.20;;
26060;SDS011;36331;51.378;0.018;2022-07-15T00:28:14;6.82;;;4.03;;
26060;SDS011;36331;51.378;0.018;2022-07-15T00:30:44;7.10;;;3.08;;
26060;SDS011;36331;51.378;0.018;2022-07-15T00:33:15;7.18;;;4.00;;
26060;SDS011;36331;51.378;0.018;2022-07-15T00:35:47;10.18;;;5.07;;
26060;SDS011;36331;51.378;0.018;2022-07-15T00:38:18;8.40;;;4.63;;
26060;SDS011;36331;51.378;0.018;2022-07-15T00:40:49;8.35;;;4.45;;
26060;SDS011;36331;51.378;0.018;2022-07-15T00:43:18;10.30;;;3.92;;
26060;SDS011;36331;51.378;0.018;2022-07-15T00:45:48;7.63;;;4.07;;
26060;SDS011;36331;51.378;0.018;2022-07-15T00:48:19;10.73;;;4.75;;
26060;SDS011;36331;51.378;0.018;2022-07-15T00:50:49;9.98;;;3.40;;
26060;SDS011;36331;51.378;0.018;2022-07-15T00:53:19;5.85;;;3.53;;
26060;SDS011;36331;51.378;0.018;2022-07-15T00:55:50;7.50;;;3.70;;
26060;SDS011;36331;51.378;0.018;2022-07-15T00:58:23;6.05;;;4.15;;
26060;SDS011;36331;51.378;0.018;2022-07-15T01:00:53;8.98;;;4.70;;
26060;SDS011;36331;51.378;0.018;2022-07-15T01:03:24;9.25;;;4.55;;
26060;SDS011;36331;51.378;0.018;2022-07-15T01:08:24;7.85;;;3.88;;
26060;SDS011;36331;51.378;0.018;2022-07-15T01:10:54;4.15;;;3.03;;
26060;SDS011;36331;51.378;0.018;2022-07-15T01:13:23;8.48;;;3.85;;
26060;SDS011;36331;51.378;0.018;2022-07-15T01:15:56;7.88;;;3.58;;
26060;SDS011;36331;51.378;0.018;2022-07-15T01:18:30;4.47;;;3.28;;
26060;SDS011;36331;51.378;0.018;2022-07-15T01:21:01;6.53;;;2.92;;
26060;SDS011;36331;51.378;0.018;2022-07-15T01:23:31;5.87;;;3.20;;
26060;SDS011;36331;51.378;0.018;2022-07-15T01:26:05;5.07;;;3.47;;
26060;SDS011;36331;51.378;0.018;2022-07-15T01:28:34;6.00;;;3.25;;
26060;SDS011;36331;51.378;0.018;2022-07-15T01:31:05;7.15;;;3.30;;
26060;SDS011;36331;51.378;0.018;2022-07-15T01:33:35;6.30;;;3.03;;
26060;SDS011;36331;51.378;0.018;2022-07-15T01:36:07;6.85;;;3.30;;
26060;SDS011;36331;51.378;0.018;2022-07-15T01:38:39;3.80;;;2.72;;
26060;SDS011;36331;51.378;0.018;2022-07-15T01:41:16;5.45;;;2.47;;
26060;SDS011;36331;51.378;0.018;2022-07-15T01:43:46;5.93;;;2.75;;
26060;SDS011;36331;51.378;0.018;2022-07-15T01:46:15;6.22;;;2.80;;
26060;SDS011;36331;51.378;0.018;2022-07-15T01:48:44;7.20;;;3.67;;
26060;SDS011;36331;51.378;0.018;2022-07-15T01:51:45;6.72;;;3.60;;
26060;SDS011;36331;51.378;0.018;2022-07-15T01:54:14;5.50;;;3.45;;
26060;SDS011;36331;51.378;0.018;2022-07-15T01:56:43;7.03;;;3.60;;
26060;SDS011;36331;51.378;0.018;2022-07-15T01:59:13;4.78;;;3.58;;
26060;SDS011;36331;51.378;0.018;2022-07-15T02:01:43;6.15;;;3.38;;
26060;SDS011;36331;51.378;0.018;2022-07-15T02:04:16;9.57;;;3.72;;
26060;SDS011;36331;51.378;0.018;2022-07-15T02:06:46;6.60;;;4.05;;
26060;SDS011;36331;51.378;0.018;2022-07-15T02:09:18;5.88;;;3.90;;
26060;SDS011;36331;51.378;0.018;2022-07-15T02:11:51;7.40;;;3.60;;
26060;SDS011;36331;51.378;0.018;2022-07-15T02:14:24;4.30;;;3.20;;
26060;SDS011;36331;51.378;0.018;2022-07-15T02:17:00;6.05;;;3.40;;
26060;SDS011;36331;51.378;0.018;2022-07-15T02:19:33;6.40;;;3.67;;
26060;SDS011;36331;51.378;0.018;2022-07-15T02:22:04;5.32;;;3.58;;
26060;SDS011;36331;51.378;0.018;2022-07-15T02:24:35;6.57;;;3.60;;
26060;SDS011;36331;51.378;0.018;2022-07-15T02:27:04;5.57;;;3.70;;
26060;SDS011;36331;51.378;0.018;2022-07-15T02:29:34;4.10;;;2.80;;
26060;SDS011;36331;51.378;0.018;2022-07-15T02:32:04;6.63;;;3.67;;
26060;SDS011;36331;51.378;0.018;2022-07-15T02:34:35;8.75;;;3.72;;
26060;SDS011;36331;51.378;0.018;2022-07-15T02:37:08;9.50;;;4.53;;
26060;SDS011;36331;51.378;0.018;2022-07-15T02:39:37;9.00;;;3.88;;
26060;SDS011;36331;51.378;0.018;2022-07-15T02:42:09;6.78;;;3.85;;
26060;SDS011;36331;51.378;0.018;2022-07-15T02:44:41;7.55;;;4.18;;
26060;SDS011;36331;51.378;0.018;2022-07-15T02:47:12;9.05;;;4.20;;
26060;SDS011;36331;51.378;0.018;2022-07-15T02:49:42;9.13;;;4.95;;
26060;SDS011;36331;51.378;0.018;2022-07-15T02:54:51;7.22;;;4.53;;
26060;SDS011;36331;51.378;0.018;2022-07-15T02:57:20;7.68;;;4.47;;
26060;SDS011;36331;51.378;0.018;2022-07-15T02:59:49;11.23;;;5.45;;
26060;SDS011;36331;51.378;0.018;2022-07-15T03:02:20;9.02;;;4.53;;
26060;SDS011;36331;51.378;0.018;2022-07-15T03:04:52;7.78;;;4.53;;
26060;SDS011;36331;51.378;0.018;2022-07-15T03:07:21;10.32;;;4.22;;
26060;SDS011;36331;51.378;0.018;2022-07-15T03:09:53;7.80;;;4.28;;
26060;SDS011;36331;51.378;0.018;2022-07-15T03:12:25;7.13;;;4.15;;
26060;SDS011;36331;51.378;0.018;2022-07-15T03:14:55;6.35;;;4.07;;
26060;SDS011;36331;51.378;0.018;2022-07-15T03:17:24;8.55;;;4.22;;
26060;SDS011;36331;51.378;0.018;2022-07-15T03:19:55;5.32;;;3.90;;
26060;SDS011;36331;51.378;0.018;2022-07-15T03:22:25;5.43;;;3.55;;
26060;SDS011;36331;51.378;0.018;2022-07-15T03:24:57;8.25;;;4.18;;
26060;SDS011;36331;51.378;0.018;2022-07-15T03:27:27;7.23;;;3.83;;
26060;SDS011;36331;51.378;0.018;2022-07-15T03:29:59;10.40;;;3.45;;
26060;SDS011;36331;51.378;0.018;2022-07-15T03:32:28;5.80;;;4.53;;
26060;SDS011;36331;51.378;0.018;2022-07-15T03:34:58;7.28;;;3.92;;
26060;SDS011;36331;51.378;0.018;2022-07-15T03:37:30;7.68;;;3.95;;
26060;SDS011;36331;51.378;0.018;2022-07-15T03:40:01;7.30;;;3.35;;
26060;SDS011;36331;51.378;0.018;2022-07-15T03:42:31;5.47;;;3.85;;
26060;SDS011;36331;51.378;0.018;2022-07-15T03:45:01;5.20;;;3.00;;
26060;SDS011;36331;51.378;0.018;2022-07-15T03:47:31;6.55;;;3.22;;
26060;SDS011;36331;51.378;0.018;2022-07-15T03:50:04;7.53;;;3.15;;
26060;SDS011;36331;51.378;0.018;2022-07-15T03:52:35;4.13;;;3.40;;
26060;SDS011;36331;51.378;0.018;2022-07-15T03:55:08;7.57;;;3.33;;
26060;SDS011;36331;51.378;0.018;2022-07-15T03:57:40;3.53;;;2.58;;
26060;SDS011;36331;51.378;0.018;2022-07-15T04:00:10;8.52;;;3.65;;
26060;SDS011;36331;51.378;0.018;2022-07-15T04:02:42;5.18;;;3.00;;
26060;SDS011;36331;51.378;0.018;2022-07-15T04:05:14;6.93;;;3.15;;
26060;SDS011;36331;51.378;0.018;2022-07-15T04:07:44;5.65;;;2.92;;
26060;SDS011;36331;51.378;0.018;2022-07-15T04:10:17;4.82;;;3.08;;
26060;SDS011;36331;51.378;0.018;2022-07-15T04:12:47;4.85;;;2.85;;
26060;SDS011;36331;51.378;0.018;2022-07-15T04:15:16;5.78;;;2.42;;
26060;SDS011;36331;51.378;0.018;2022-07-15T04:17:46;6.35;;;3.25;;
26060;SDS011;36331;51.378;0.018;2022-07-15T04:20:19;4.47;;;2.50;;
26060;SDS011;36331;51.378;0.018;2022-07-15T04:22:52;3.22;;;2.40;;
26060;SDS011;36331;51.378;0.018;2022-07-15T04:25:23;4.93;;;2.60;;
26060;SDS011;36331;51.378;0.018;2022-07-15T04:27:52;4.43;;;2.67;;
26060;SDS011;36331;51.378;0.018;2022-07-15T04:30:28;4.50;;;2.58;;
26060;SDS011;36331;51.378;0.018;2022-07-15T04:33:00;5.60;;;2.47;;
26060;SDS011;36331;51.378;0.018;2022-07-15T04:35:49;3.60;;;2.20;;
26060;SDS011;36331;51.378;0.018;2022-07-15T04:38:19;7.38;;;3.22;;
26060;SDS011;36331;51.378;0.018;2022-07-15T04:40:49;4.78;;;2.58;;
26060;SDS011;36331;51.378;0.018;2022-07-15T04:43:19;8.82;;;3.15;;
26060;SDS011;36331;51.378;0.018;2022-07-15T04:45:48;3.92;;;2.40;;
26060;SDS011;36331;51.378;0.018;2022-07-15T04:48:27;4.80;;;2.28;;
26060;SDS011;36331;51.378;0.018;2022-07-15T04:51:32;4.68;;;2.45;;
26060;SDS011;36331;51.378;0.018;2022-07-15T04:54:10;4.22;;;1.92;;
26060;SDS011;36331;51.378;0.018;2022-07-15T04:56:43;3.72;;;2.10;;
26060;SDS011;36331;51.378;0.018;2022-07-15T04:59:16;4.35;;;2.00;;
26060;SDS011;36331;51.378;0.018;2022-07-15T05:01:49;6.63;;;2.33;;
26060;SDS011;36331;51.378;0.018;2022-07-15T05:04:33;6.43;;;2.42;;
26060;SDS011;36331;51.378;0.018;2022-07-15T05:07:10;5.00;;;2.25;;
26060;SDS011;36331;51.378;0.018;2022-07-15T05:09:44;3.95;;;1.80;;
26060;SDS011;36331;51.378;0.018;2022-07-15T05:12:16;2.85;;;1.88;;
26060;SDS011;36331;51.378;0.018;2022-07-15T05:14:54;2.97;;;1.67;;
26060;SDS011;36331;51.378;0.018;2022-07-15T05:17:29;6.05;;;1.55;;
26060;SDS011;36331;51.378;0.018;2022-07-15T05:20:01;3.58;;;1.85;;
26060;SDS011;36331;51.378;0.018;2022-07-15T05:22:33;3.92;;;2.00;;
26060;SDS011;36331;51.378;0.018;2022-07-15T05:25:06;5.43;;;2.35;;
26060;SDS011;36331;51.378;0.018;2022-07-15T05:27:41;4.72;;;1.50;;
26060;SDS011;36331;51.378;0.018;2022-07-15T05:30:16;2.53;;;1.38;;
26060;SDS011;36331;51.378;0.018;2022-07-15T05:32:49;3.33;;;1.40;;
26060;SDS011;36331;51.378;0.018;2022-07-15T05:35:22;4.20;;;1.50;;
26060;SDS011;36331;51.378;0.018;2022-07-15T05:37:55;3.22;;;1.77;;
26060;SDS011;36331;51.378;0.018;2022-07-15T05:40:30;2.55;;;1.08;;
26060;SDS011;36331;51.378;0.018;2022-07-15T05:43:02;2.13;;;1.10;;
26060;SDS011;36331;51.378;0.018;2022-07-15T05:45:35;5.07;;;1.42;;
26060;SDS011;36331;51.378;0.018;2022-07-15T05:48:07;2.22;;;0.93;;
26060;SDS011;36331;51.378;0.018;2022-07-15T05:50:44;2.60;;;1.23;;
26060;SDS011;36331;51.378;0.018;2022-07-15T05:53:16;2.50;;;1.00;;
26060;SDS011;36331;51.378;0.018;2022-07-15T05:55:45;3.45;;;1.10;;
26060;SDS011;36331;51.378;0.018;2022-07-15T05:58:24;2.75;;;1.13;;
26060;SDS011;36331;51.378;0.018;2022-07-15T06:00:55;2.20;;;1.10;;
26060;SDS011;36331;51.378;0.018;2022-07-15T06:03:31;2.38;;;1.30;;
26060;SDS011;36331;51.378;0.018;2022-07-15T06:06:02;3.90;;;1.80;;
26060;SDS011;36331;51.378;0.018;2022-07-15T06:11:04;3.65;;;1.25;;
26060;SDS011;36331;51.378;0.018;2022-07-15T06:13:37;1.67;;;1.23;;
26060;SDS011;36331;51.378;0.018;2022-07-15T06:16:07;2.70;;;0.90;;
26060;SDS011;36331;51.378;0.018;2022-07-15T06:18:40;2.92;;;0.85;;
26060;SDS011;36331;51.378;0.018;2022-07-15T06:21:10;5.03;;;1.48;;
26060;SDS011;36331;51.378;0.018;2022-07-15T06:23:44;6.00;;;0.80;;
26060;SDS011;36331;51.378;0.018;2022-07-15T06:26:14;3.38;;;0.70;;
26060;SDS011;36331;51.378;0.018;2022-07-15T06:28:47;4.82;;;1.70;;
26060;SDS011;36331;51.378;0.018;2022-07-15T06:31:21;2.33;;;0.75;;
26060;SDS011;36331;51.378;0.018;2022-07-15T06:33:51;2.35;;;0.80;;
26060;SDS011;36331;51.378;0.018;2022-07-15T06:36:20;2.60;;;0.90;;
26060;SDS011;36331;51.378;0.018;2022-07-15T06:38:50;1.58;;;0.80;;
26060;SDS011;36331;51.378;0.018;2022-07-15T06:41:19;5.25;;;0.93;;
26060;SDS011;36331;51.378;0.018;2022-07-15T06:43:57;5.65;;;1.92;;
26060;SDS011;36331;51.378;0.018;2022-07-15T06:46:43;3.13;;;0.98;;
26060;SDS011;36331;51.378;0.018;2022-07-15T06:49:12;4.53;;;1.60;;
26060;SDS011;36331;51.378;0.018;2022-07-15T06:51:43;1.88;;;0.80;;
26060;SDS011;36331;51.378;0.018;2022-07-15T06:54:12;2.92;;;1.13;;
26060;SDS011;36331;51.378;0.018;2022-07-15T06:56:48;2.30;;;1.00;;
26060;SDS011;36331;51.378;0.018;2022-07-15T06:59:19;2.83;;;1.00;;
26060;SDS011;36331;51.378;0.018;2022-07-15T07:01:52;3.25;;;1.42;;
26060;SDS011;36331;51.378;0.018;2022-07-15T07:04:28;2.58;;;1.00;;
26060;SDS011;36331;51.378;0.018;2022-07-15T07:07:10;1.95;;;1.00;;
26060;SDS011;36331;51.378;0.018;2022-07-15T07:09:42;2.97;;;0.95;;
26060;SDS011;36331;51.378;0.018;2022-07-15T07:12:14;2.97;;;0.90;;
26060;SDS011;36331;51.378;0.018;2022-07-15T07:14:46;3.22;;;1.30;;
26060;SDS011;36331;51.378;0.018;2022-07-15T07:17:15;3.08;;;1.25;;
26060;SDS011;36331;51.378;0.018;2022-07-15T07:19:46;1.70;;;0.70;;
26060;SDS011;36331;51.378;0.018;2022-07-15T07:22:16;2.00;;;0.80;;
26060;SDS011;36331;51.378;0.018;2022-07-15T07:24:45;2.92;;;0.93;;
26060;SDS011;36331;51.378;0.018;2022-07-15T07:27:14;2.70;;;0.70;;
26060;SDS011;36331;51.378;0.018;2022-07-15T07:29:43;3.75;;;1.35;;
26060;SDS011;36331;51.378;0.018;2022-07-15T07:32:14;2.97;;;1.23;;
26060;SDS011;36331;51.378;0.018;2022-07-15T07:34:43;2.03;;;1.02;;
26060;SDS011;36331;51.378;0.018;2022-07-15T07:37:12;5.07;;;1.10;;
26060;SDS011;36331;51.378;0.018;2022-07-15T07:39:41;5.15;;;1.15;;
26060;SDS011;36331;51.378;0.018;2022-07-15T07:42:10;2.42;;;1.00;;
26060;SDS011;36331;51.378;0.018;2022-07-15T07:44:41;2.08;;;0.70;;
26060;SDS011;36331;51.378;0.018;2022-07-15T07:47:10;3.70;;;0.90;;
26060;SDS011;36331;51.378;0.018;2022-07-15T07:49:42;4.05;;;0.95;;
26060;SDS011;36331;51.378;0.018;2022-07-15T07:52:13;1.85;;;0.80;;
26060;SDS011;36331;51.378;0.018;2022-07-15T07:55:05;3.70;;;1.23;;
26060;SDS011;36331;51.378;0.018;2022-07-15T07:57:35;4.25;;;1.23;;
26060;SDS011;36331;51.378;0.018;2022-07-15T08:00:14;2.90;;;1.00;;
26060;SDS011;36331;51.378;0.018;2022-07-15T08:02:44;1.67;;;0.60;;
26060;SDS011;36331;51.378;0.018;2022-07-15T08:05:15;1.73;;;0.60;;
26060;SDS011;36331;51.378;0.018;2022-07-15T08:07:51;2.33;;;0.60;;
26060;SDS011;36331;51.378;0.018;2022-07-15T08:10:21;1.98;;;0.60;;
26060;SDS011;36331;51.378;0.018;2022-07-15T08:12:50;17.33;;;2.05;;
26060;SDS011;36331;51.378;0.018;2022-07-15T08:15:19;9.82;;;2.00;;
26060;SDS011;36331;51.378;0.018;2022-07-15T08:17:51;2.30;;;0.60;;
26060;SDS011;36331;51.378;0.018;2022-07-15T08:20:21;4.13;;;0.95;;
26060;SDS011;36331;51.378;0.018;2022-07-15T08:22:51;3.42;;;0.70;;
26060;SDS011;36331;51.378;0.018;2022-07-15T08:25:26;3.17;;;0.73;;
26060;SDS011;36331;51.378;0.018;2022-07-15T08:27:55;3.53;;;0.50;;
26060;SDS011;36331;51.378;0.018;2022-07-15T08:30:26;4.03;;;0.90;;
26060;SDS011;36331;51.378;0.018;2022-07-15T08:32:55;3.47;;;0.70;;
26060;SDS011;36331;51.378;0.018;2022-07-15T08:35:26;3.70;;;0.80;;
26060;SDS011;36331;51.378;0.018;2022-07-15T08:37:57;1.98;;;1.10;;
26060;SDS011;36331;51.378;0.018;2022-07-15T08:40:27;3.75;;;1.23;;
26060;SDS011;36331;51.378;0.018;2022-07-15T08:42:57;2.60;;;0.73;;
26060;SDS011;36331;51.378;0.018;2022-07-15T08:45:29;3.13;;;0.70;;
26060;SDS011;36331;51.378;0.018;2022-07-15T08:47:59;5.43;;;1.10;;
26060;SDS011;36331;51.378;0.018;2022-07-15T08:50:33;2.85;;;0.88;;
26060;SDS011;36331;51.378;0.018;2022-07-15T08:53:03;2.35;;;0.88;;
26060;SDS011;36331;51.378;0.018;2022-07-15T08:55:33;2.03;;;0.80;;
26060;SDS011;36331;51.378;0.018;2022-07-15T08:58:02;3.10;;;0.77;;
26060;SDS011;36331;51.378;0.018;2022-07-15T09:00:34;2.08;;;0.77;;
26060;SDS011;36331;51.378;0.018;2022-07-15T09:03:04;3.47;;;1.05;;
26060;SDS011;36331;51.378;0.018;2022-07-15T09:05:36;3.78;;;1.00;;
26060;SDS011;36331;51.378;0.018;2022-07-15T09:08:06;1.40;;;0.50;;
26060;SDS011;36331;51.378;0.018;2022-07-15T09:10:42;3.40;;;0.60;;
26060;SDS011;36331;51.378;0.018;2022-07-15T09:13:22;2.33;;;1.20;;
26060;SDS011;36331;51.378;0.018;2022-07-15T09:15:52;1.88;;;0.63;;
26060;SDS011;36331;51.378;0.018;2022-07-15T09:18:23;2.50;;;0.70;;
26060;SDS011;36331;51.378;0.018;2022-07-15T09:20:54;5.05;;;1.27;;
26060;SDS011;36331;51.378;0.018;2022-07-15T09:23:24;1.90;;;0.60;;
26060;SDS011;36331;51.378;0.018;2022-07-15T09:25:58;3.47;;;1.20;;
26060;SDS011;36331;51.378;0.018;2022-07-15T09:28:37;1.67;;;0.73;;
26060;SDS011;36331;51.378;0.018;2022-07-15T09:31:07;1.77;;;0.70;;
26060;SDS011;36331;51.378;0.018;2022-07-15T09:33:58;2.83;;;0.75;;
26060;SDS011;36331;51.378;0.018;2022-07-15T09:36:29;2.63;;;0.55;;
26060;SDS011;36331;51.378;0.018;2022-07-15T09:39:00;2.28;;;0.57;;
26060;SDS011;36331;51.378;0.018;2022-07-15T09:41:30;3.70;;;0.68;;
26060;SDS011;36331;51.378;0.018;2022-07-15T09:44:01;2.47;;;0.85;;
26060;SDS011;36331;51.378;0.018;2022-07-15T09:46:39;1.98;;;0.60;;
26060;SDS011;36331;51.378;0.018;2022-07-15T09:49:10;2.33;;;1.20;;
26060;SDS011;36331;51.378;0.018;2022-07-15T09:51:45;2.85;;;0.68;;
26060;SDS011;36331;51.378;0.018;2022-07-15T09:54:15;1.15;;;0.50;;
26060;SDS011;36331;51.378;0.018;2022-07-15T09:56:46;2.58;;;0.57;;
26060;SDS011;36331;51.378;0.018;2022-07-15T09:59:16;0.85;;;0.55;;
26060;SDS011;36331;51.378;0.018;2022-07-15T10:01:46;2.65;;;0.70;;
26060;SDS011;36331;51.378;0.018;2022-07-15T10:04:17;3.42;;;0.57;;
26060;SDS011;36331;51.378;0.018;2022-07-15T10:06:48;2.42;;;0.50;;
26060;SDS011;36331;51.378;0.018;2022-07-15T10:09:38;1.55;;;0.55;;
26060;SDS011;36331;51.378;0.018;2022-07-15T10:12:10;3.35;;;0.75;;
26060;SDS011;36331;51.378;0.018;2022-07-15T10:14:54;2.78;;;0.75;;
26060;SDS011;36331;51.378;0.018;2022-07-15T10:17:31;1.80;;;0.60;;
26060;SDS011;36331;51.378;0.018;2022-07-15T10:20:13;3.05;;;0.50;;
26060;SDS011;36331;51.378;0.018;2022-07-15T10:22:57;2.25;;;0.43;;
26060;SDS011;36331;51.378;0.018;2022-07-15T10:25:35;1.55;;;0.32;;
26060;SDS011;36331;51.378;0.018;2022-07-15T10:28:12;2.90;;;0.60;;
26060;SDS011;36331;51.378;0.018;2022-07-15T10:30:42;3.83;;;0.65;;
26060;SDS011;36331;51.378;0.018;2022-07-15T10:33:14;1.20;;;0.50;;
26060;SDS011;36331;51.378;0.018;2022-07-15T10:35:45;3.05;;;0.50;;
26060;SDS011;36331;51.378;0.018;2022-07-15T10:41:05;0.77;;;0.60;;
26060;SDS011;36331;51.378;0.018;2022-07-15T10:43:39;2.45;;;0.50;;
26060;SDS011;36331;51.378;0.018;2022-07-15T10:46:16;2.42;;;0.60;;
26060;SDS011;36331;51.378;0.018;2022-07-15T10:48:47;2.05;;;0.50;;
26060;SDS011;36331;51.378;0.018;2022-07-15T10:54:06;2.67;;;0.60;;
26060;SDS011;36331;51.378;0.018;2022-07-15T10:56:37;2.20;;;0.70;;
26060;SDS011;36331;51.378;0.018;2022-07-15T10:59:10;2.75;;;0.50;;
26060;SDS011;36331;51.378;0.018;2022-07-15T11:01:41;2.13;;;0.45;;
26060;SDS011;36331;51.378;0.018;2022-07-15T11:04:12;0.93;;;0.50;;
26060;SDS011;36331;51.378;0.018;2022-07-15T11:09:47;1.88;;;0.50;;
26060;SDS011;36331;51.378;0.018;2022-07-15T11:12:19;1.33;;;0.40;;
26060;SDS011;36331;51.378;0.018;2022-07-15T11:14:51;1.55;;;0.50;;
26060;SDS011;36331;51.378;0.018;2022-07-15T11:17:23;0.93;;;0.50;;
26060;SDS011;36331;51.378;0.018;2022-07-15T11:19:54;1.20;;;0.40;;
26060;SDS011;36331;51.378;0.018;2022-07-15T11:22:24;0.65;;;0.30;;
26060;SDS011;36331;51.378;0.018;2022-07-15T11:24:54;0.90;;;0.40;;
26060;SDS011;36331;51.378;0.018;2022-07-15T11:27:26;1.23;;;0.50;;
26060;SDS011;36331;51.378;0.018;2022-07-15T11:29:56;0.98;;;0.50;;
26060;SDS011;36331;51.378;0.018;2022-07-15T11:32:29;1.10;;;0.50;;
26060;SDS011;36331;51.378;0.018;2022-07-15T11:37:47;0.82;;;0.40;;
26060;SDS011;36331;51.378;0.018;2022-07-15T11:40:20;3.47;;;0.77;;
26060;SDS011;36331;51.378;0.018;2022-07-15T11:43:11;3.55;;;0.70;;
26060;SDS011;36331;51.378;0.018;2022-07-15T11:45:58;1.75;;;0.60;;
26060;SDS011;36331;51.378;0.018;2022-07-15T11:48:28;1.75;;;0.50;;
26060;SDS011;36331;51.378;0.018;2022-07-15T11:51:03;1.63;;;0.52;;
26060;SDS011;36331;51.378;0.018;2022-07-15T11:53:36;1.75;;;0.63;;
26060;SDS011;36331;51.378;0.018;2022-07-15T11:56:08;1.10;;;0.52;;
26060;SDS011;36331;51.378;0.018;2022-07-15T11:58:40;1.77;;;0.50;;
26060;SDS011;36331;51.378;0.018;2022-07-15T12:03:40;1.15;;;0.57;;
26060;SDS011;36331;51.378;0.018;2022-07-15T12:06:11;1.10;;;0.60;;
26060;SDS011;36331;51.378;0.018;2022-07-15T12:08:43;2.63;;;0.73;;
26060;SDS011;36331;51.378;0.018;2022-07-15T12:11:17;0.63;;;0.50;;
26060;SDS011;36331;51.378;0.018;2022-07-15T12:13:52;2.60;;;0.63;;
26060;SDS011;36331;51.378;0.018;2022-07-15T12:16:24;1.25;;;0.52;;
26060;SDS011;36331;51.378;0.018;2022-07-15T12:18:54;0.87;;;0.60;;
26060;SDS011;36331;51.378;0.018;2022-07-15T12:21:24;1.90;;;0.55;;
26060;SDS011;36331;51.378;0.018;2022-07-15T12:24:02;0.75;;;0.45;;
26060;SDS011;36331;51.378;0.018;2022-07-15T12:26:32;2.05;;;0.50;;
26060;SDS011;36331;51.378;0.018;2022-07-15T12:29:02;1.35;;;0.60;;
26060;SDS011;36331;51.378;0.018;2022-07-15T12:31:33;2.00;;;0.77;;
26060;SDS011;36331;51.378;0.018;2022-07-15T12:34:02;1.08;;;0.50;;
26060;SDS011;36331;51.378;0.018;2022-07-15T12:36:32;3.40;;;1.02;;
26060;SDS011;36331;51.378;0.018;2022-07-15T12:39:03;1.17;;;0.43;;
26060;SDS011;36331;51.378;0.018;2022-07-15T12:41:35;5.25;;;1.10;;
26060;SDS011;36331;51.378;0.018;2022-07-15T12:44:06;2.97;;;0.77;;
26060;SDS011;36331;51.378;0.018;2022-07-15T12:46:49;1.45;;;0.88;;
26060;SDS011;36331;51.378;0.018;2022-07-15T12:49:38;4.68;;;0.90;;
26060;SDS011;36331;51.378;0.018;2022-07-15T12:52:17;7.55;;;1.00;;
26060;SDS011;36331;51.378;0.018;2022-07-15T12:54:47;2.05;;;0.50;;
26060;SDS011;36331;51.378;0.018;2022-07-15T12:57:20;1.35;;;0.75;;
26060;SDS011;36331;51.378;0.018;2022-07-15T12:59:51;1.75;;;0.70;;
26060;SDS011;36331;51.378;0.018;2022-07-15T13:02:20;2.28;;;1.10;;
26060;SDS011;36331;51.378;0.018;2022-07-15T13:04:50;4.35;;;0.80;;
26060;SDS011;36331;51.378;0.018;2022-07-15T13:07:19;1.13;;;0.73;;
26060;SDS011;36331;51.378;0.018;2022-07-15T13:09:49;2.50;;;1.10;;
26060;SDS011;36331;51.378;0.018;2022-07-15T13:12:37;2.92;;;0.55;;
26060;SDS011;36331;51.378;0.018;2022-07-15T13:15:09;3.08;;;0.60;;
26060;SDS011;36331;51.378;0.018;2022-07-15T13:17:38;5.03;;;1.05;;
26060;SDS011;36331;51.378;0.018;2022-07-15T13:20:08;2.03;;;0.75;;
26060;SDS011;36331;51.378;0.018;2022-07-15T13:22:39;2.67;;;0.75;;
26060;SDS011;36331;51.378;0.018;2022-07-15T13:25:08;2.70;;;0.60;;
26060;SDS011;36331;51.378;0.018;2022-07-15T13:27:38;4.07;;;1.00;;
26060;SDS011;36331;51.378;0.018;2022-07-15T13:30:09;1.80;;;0.73;;
26060;SDS011;36331;51.378;0.018;2022-07-15T13:32:39;1.65;;;0.60;;
26060;SDS011;36331;51.378;0.018;2022-07-15T13:35:09;1.67;;;0.77;;
26060;SDS011;36331;51.378;0.018;2022-07-15T13:37:43;2.58;;;1.00;;
26060;SDS011;36331;51.378;0.018;2022-07-15T13:40:17;6.28;;;0.80;;
26060;SDS011;36331;51.378;0.018;2022-07-15T13:42:46;0.90;;;0.65;;
26060;SDS011;36331;51.378;0.018;2022-07-15T13:45:17;2.22;;;0.70;;
26060;SDS011;36331;51.378;0.018;2022-07-15T13:47:46;0.85;;;0.52;;
26060;SDS011;36331;51.378;0.018;2022-07-15T13:50:15;6.07;;;1.15;;
26060;SDS011;36331;51.378;0.018;2022-07-15T13:53:17;2.38;;;1.13;;
26060;SDS011;36331;51.378;0.018;2022-07-15T13:55:46;1.70;;;0.50;;
26060;SDS011;36331;51.378;0.018;2022-07-15T13:58:15;1.48;;;0.70;;
26060;SDS011;36331;51.378;0.018;2022-07-15T14:00:46;1.65;;;0.95;;
26060;SDS011;36331;51.378;0.018;2022-07-15T14:03:20;1.05;;;0.63;;
26060;SDS011;36331;51.378;0.018;2022-07-15T14:05:49;3.78;;;0.80;;
26060;SDS011;36331;51.378;0.018;2022-07-15T14:08:18;1.63;;;0.90;;
26060;SDS011;36331;51.378;0.018;2022-07-15T14:10:47;1.65;;;0.50;;
26060;SDS011;36331;51.378;0.018;2022-07-15T14:13:17;1.98;;;0.80;;
26060;SDS011;36331;51.378;0.018;2022-07-15T14:15:47;6.00;;;1.83;;
26060;SDS011;36331;51.378;0.018;2022-07-15T14:18:16;1.88;;;0.80;;
26060;SDS011;36331;51.378;0.018;2022-07-15T14:21:06;1.35;;;0.63;;
26060;SDS011;36331;51.378;0.018;2022-07-15T14:23:38;1.83;;;0.90;;
26060;SDS011;36331;51.378;0.018;2022-07-15T14:26:07;22.20;;;3.42;;
26060;SDS011;36331;51.378;0.018;2022-07-15T14:28:36;2.42;;;0.65;;
26060;SDS011;36331;51.378;0.018;2022-07-15T14:31:08;1.05;;;0.60;;
26060;SDS011;36331;51.378;0.018;2022-07-15T14:33:39;2.60;;;0.90;;
26060;SDS011;36331;51.378;0.018;2022-07-15T14:36:09;0.98;;;0.60;;
26060;SDS011;36331;51.378;0.018;2022-07-15T14:38:39;2.08;;;0.73;;
26060;SDS011;36331;51.378;0.018;2022-07-15T14:41:08;3.15;;;0.85;;
26060;SDS011;36331;51.378;0.018;2022-07-15T14:43:38;2.47;;;0.85;;
26060;SDS011;36331;51.378;0.018;2022-07-15T14:46:09;1.85;;;0.80;;
26060;SDS011;36331;51.378;0.018;2022-07-15T14:48:38;0.75;;;0.45;;
26060;SDS011;36331;51.378;0.018;2022-07-15T14:51:07;2.17;;;0.70;;
26060;SDS011;36331;51.378;0.018;2022-07-15T14:53:36;1.05;;;0.60;;
26060;SDS011;36331;51.378;0.018;2022-07-15T14:56:06;1.55;;;0.70;;
26060;SDS011;36331;51.378;0.018;2022-07-15T14:58:35;3.08;;;0.90;;
26060;SDS011;36331;51.378;0.018;2022-07-15T15:01:05;1.05;;;0.77;;
26060;SDS011;36331;51.378;0.018;2022-07-15T15:03:35;1.35;;;0.70;;
26060;SDS011;36331;51.378;0.018;2022-07-15T15:06:05;2.50;;;1.00;;
26060;SDS011;36331;51.378;0.018;2022-07-15T15:08:34;2.15;;;0.85;;
26060;SDS011;36331;51.378;0.018;2022-07-15T15:11:03;1.88;;;0.45;;
26060;SDS011;36331;51.378;0.018;2022-07-15T15:13:33;2.67;;;1.00;;
26060;SDS011;36331;51.378;0.018;2022-07-15T15:16:02;2.55;;;1.00;;
26060;SDS011;36331;51.378;0.018;2022-07-15T15:18:32;1.30;;;0.60;;
26060;SDS011;36331;51.378;0.018;2022-07-15T15:21:02;2.10;;;0.80;;
26060;SDS011;36331;51.378;0.018;2022-07-15T15:23:33;1.92;;;0.73;;
26060;SDS011;36331;51.378;0.018;2022-07-15T15:26:02;1.35;;;0.77;;
26060;SDS011;36331;51.378;0.018;2022-07-15T15:28:52;1.25;;;0.57;;
26060;SDS011;36331;51.378;0.018;2022-07-15T15:31:22;2.03;;;0.60;;
26060;SDS011;36331;51.378;0.018;2022-07-15T15:33:53;1.48;;;0.52;;
26060;SDS011;36331;51.378;0.018;2022-07-15T15:36:23;2.70;;;1.13;;
26060;SDS011;36331;51.378;0.018;2022-07-15T15:39:05;1.80;;;1.10;;